sensor_id;sensor_type;location;lat;lon;timestamp;temperature;humidity
50955;DHT22;36966;48.064;-0.792;2023-08-17T00:01:19;26.40;54.10
50955;DHT22;36966;48.064;-0.792;2023-08-17T00:03:42;26.40;54.10
50955;DHT22;36966;48.064;-0.792;2023-08-17T00:06:01;26.40;54.10
50955;DHT22;36966;48.064;-0.792;2023-08-17T00:08:21;26.40;54.20
50955;DHT22;36966;48.064;-0.792;2023-08-17T00:10:40;26.40;54.10
50955;DHT22;36966;48.064;-0.792;2023-08-17T00:13:00;26.40;54.20
50955;DHT22;36966;48.064;-0.792;2023-08-17T00:15:21;26.30;54.20
50955;DHT22;36966;48.064;-0.792;2023-08-17T00:17:40;26.30;54.20
50955;DHT22;36966;48.064;-0.792;2023-08-17T00:19:59;26.30;54.30
50955;DHT22;36966;48.064;-0.792;2023-08-17T00:22:18;26.30;54.30
50955;DHT22;36966;48.064;-0.792;2023-08-17T00:24:37;26.30;54.30
50955;DHT22;36966;48.064;-0.792;2023-08-17T00:26:57;26.30;54.30
50955;DHT22;36966;48.064;-0.792;2023-08-17T00:35:11;26.20;54.30
50955;DHT22;36966;48.064;-0.792;2023-08-17T00:37:30;26.20;54.30
50955;DHT22;36966;48.064;-0.792;2023-08-17T00:39:50;26.20;54.40
50955;DHT22;36966;48.064;-0.792;2023-08-17T00:42:09;26.20;54.40
50955;DHT22;36966;48.064;-0.792;2023-08-17T00:44:29;26.20;54.40
50955;DHT22;36966;48.064;-0.792;2023-08-17T00:46:48;26.20;54.40
50955;DHT22;36966;48.064;-0.792;2023-08-17T00:49:07;26.20;54.40
50955;DHT22;36966;48.064;-0.792;2023-08-17T00:51:29;26.20;54.50
50955;DHT22;36966;48.064;-0.792;2023-08-17T00:53:48;26.20;54.50
50955;DHT22;36966;48.064;-0.792;2023-08-17T00:56:07;26.20;54.50
50955;DHT22;36966;48.064;-0.792;2023-08-17T00:58:27;26.20;54.50
50955;DHT22;36966;48.064;-0.792;2023-08-17T01:00:46;26.10;54.60
50955;DHT22;36966;48.064;-0.792;2023-08-17T01:03:06;26.10;54.70
50955;DHT22;36966;48.064;-0.792;2023-08-17T01:05:25;26.20;54.60
50955;DHT22;36966;48.064;-0.792;2023-08-17T01:07:45;26.10;54.60
50955;DHT22;36966;48.064;-0.792;2023-08-17T01:10:04;26.10;54.60
50955;DHT22;36966;48.064;-0.792;2023-08-17T01:15:08;26.10;54.60
50955;DHT22;36966;48.064;-0.792;2023-08-17T01:17:29;26.10;54.70
50955;DHT22;36966;48.064;-0.792;2023-08-17T01:19:50;26.10;54.60
50955;DHT22;36966;48.064;-0.792;2023-08-17T01:22:11;26.10;54.70
50955;DHT22;36966;48.064;-0.792;2023-08-17T01:24:37;26.10;54.70
50955;DHT22;36966;48.064;-0.792;2023-08-17T01:26:56;26.00;54.70
50955;DHT22;36966;48.064;-0.792;2023-08-17T01:29:16;26.00;54.70
50955;DHT22;36966;48.064;-0.792;2023-08-17T01:31:37;26.00;54.80
50955;DHT22;36966;48.064;-0.792;2023-08-17T01:34:04;26.00;54.80
50955;DHT22;36966;48.064;-0.792;2023-08-17T01:38:47;25.90;54.80
50955;DHT22;36966;48.064;-0.792;2023-08-17T01:41:09;25.90;54.80
50955;DHT22;36966;48.064;-0.792;2023-08-17T01:43:34;25.90;54.90
50955;DHT22;36966;48.064;-0.792;2023-08-17T01:45:54;25.90;54.90
50955;DHT22;36966;48.064;-0.792;2023-08-17T01:48:16;25.90;54.80
50955;DHT22;36966;48.064;-0.792;2023-08-17T01:50:35;25.80;54.80
50955;DHT22;36966;48.064;-0.792;2023-08-17T01:52:54;25.80;54.90
50955;DHT22;36966;48.064;-0.792;2023-08-17T01:55:13;25.80;55.00
50955;DHT22;36966;48.064;-0.792;2023-08-17T01:57:33;25.80;55.00
50955;DHT22;36966;48.064;-0.792;2023-08-17T01:59:52;25.80;55.00
50955;DHT22;36966;48.064;-0.792;2023-08-17T02:02:11;25.80;55.10
50955;DHT22;36966;48.064;-0.792;2023-08-17T02:04:33;25.80;55.10
50955;DHT22;36966;48.064;-0.792;2023-08-17T02:06:52;25.80;55.10
50955;DHT22;36966;48.064;-0.792;2023-08-17T02:09:11;25.80;55.10
50955;DHT22;36966;48.064;-0.792;2023-08-17T02:11:40;25.80;55.10
50955;DHT22;36966;48.064;-0.792;2023-08-17T02:14:00;25.70;55.20
50955;DHT22;36966;48.064;-0.792;2023-08-17T02:16:19;25.70;55.10
50955;DHT22;36966;48.064;-0.792;2023-08-17T02:18:38;25.70;55.20
50955;DHT22;36966;48.064;-0.792;2023-08-17T02:20:58;25.70;55.20
50955;DHT22;36966;48.064;-0.792;2023-08-17T02:23:17;25.70;55.10
50955;DHT22;36966;48.064;-0.792;2023-08-17T02:25:40;25.70;55.20
50955;DHT22;36966;48.064;-0.792;2023-08-17T02:28:06;25.70;55.30
50955;DHT22;36966;48.064;-0.792;2023-08-17T02:30:25;25.70;55.20
50955;DHT22;36966;48.064;-0.792;2023-08-17T02:32:44;25.80;55.20
50955;DHT22;36966;48.064;-0.792;2023-08-17T02:35:04;25.70;55.30
50955;DHT22;36966;48.064;-0.792;2023-08-17T02:37:24;25.70;55.30
50955;DHT22;36966;48.064;-0.792;2023-08-17T02:39:43;25.70;55.30
50955;DHT22;36966;48.064;-0.792;2023-08-17T02:42:02;25.70;55.40
50955;DHT22;36966;48.064;-0.792;2023-08-17T02:44:22;25.70;55.40
50955;DHT22;36966;48.064;-0.792;2023-08-17T02:46:45;25.70;55.30
50955;DHT22;36966;48.064;-0.792;2023-08-17T02:49:04;25.70;55.50
50955;DHT22;36966;48.064;-0.792;2023-08-17T02:51:24;25.70;55.50
50955;DHT22;36966;48.064;-0.792;2023-08-17T02:53:43;25.60;55.50
50955;DHT22;36966;48.064;-0.792;2023-08-17T02:56:02;25.60;55.50
50955;DHT22;36966;48.064;-0.792;2023-08-17T02:58:21;25.60;55.50
50955;DHT22;36966;48.064;-0.792;2023-08-17T03:00:41;25.60;55.60
50955;DHT22;36966;48.064;-0.792;2023-08-17T03:03:00;25.60;55.50
50955;DHT22;36966;48.064;-0.792;2023-08-17T03:05:23;25.60;55.60
50955;DHT22;36966;48.064;-0.792;2023-08-17T03:07:42;25.60;55.50
50955;DHT22;36966;48.064;-0.792;2023-08-17T03:10:01;25.60;55.60
50955;DHT22;36966;48.064;-0.792;2023-08-17T03:12:20;25.60;55.70
50955;DHT22;36966;48.064;-0.792;2023-08-17T03:14:39;25.60;55.60
50955;DHT22;36966;48.064;-0.792;2023-08-17T03:16:59;25.50;55.60
50955;DHT22;36966;48.064;-0.792;2023-08-17T03:19:18;25.60;55.60
50955;DHT22;36966;48.064;-0.792;2023-08-17T03:21:37;25.50;55.70
50955;DHT22;36966;48.064;-0.792;2023-08-17T03:23:57;25.50;55.70
50955;DHT22;36966;48.064;-0.792;2023-08-17T03:26:16;25.50;55.70
50955;DHT22;36966;48.064;-0.792;2023-08-17T03:28:36;25.50;55.80
50955;DHT22;36966;48.064;-0.792;2023-08-17T03:30:55;25.50;55.80
50955;DHT22;36966;48.064;-0.792;2023-08-17T03:33:15;25.50;55.80
50955;DHT22;36966;48.064;-0.792;2023-08-17T03:35:34;25.50;55.80
50955;DHT22;36966;48.064;-0.792;2023-08-17T03:37:53;25.50;55.70
50955;DHT22;36966;48.064;-0.792;2023-08-17T03:40:16;25.50;55.80
50955;DHT22;36966;48.064;-0.792;2023-08-17T03:42:35;25.50;55.80
50955;DHT22;36966;48.064;-0.792;2023-08-17T03:44:54;25.50;55.90
50955;DHT22;36966;48.064;-0.792;2023-08-17T03:47:13;25.40;55.90
50955;DHT22;36966;48.064;-0.792;2023-08-17T03:49:33;25.40;55.90
50955;DHT22;36966;48.064;-0.792;2023-08-17T03:51:52;25.40;56.00
50955;DHT22;36966;48.064;-0.792;2023-08-17T03:54:15;25.40;56.00
50955;DHT22;36966;48.064;-0.792;2023-08-17T03:56:38;25.30;56.40
50955;DHT22;36966;48.064;-0.792;2023-08-17T03:58:57;25.30;56.60
50955;DHT22;36966;48.064;-0.792;2023-08-17T04:01:16;25.20;56.60
50955;DHT22;36966;48.064;-0.792;2023-08-17T04:03:36;25.30;56.70
50955;DHT22;36966;48.064;-0.792;2023-08-17T04:05:55;25.30;56.80
50955;DHT22;36966;48.064;-0.792;2023-08-17T04:08:14;25.20;56.90
50955;DHT22;36966;48.064;-0.792;2023-08-17T04:10:33;25.20;56.90
50955;DHT22;36966;48.064;-0.792;2023-08-17T04:12:53;25.20;57.00
50955;DHT22;36966;48.064;-0.792;2023-08-17T04:15:13;25.20;57.00
50955;DHT22;36966;48.064;-0.792;2023-08-17T04:17:32;25.20;57.00
50955;DHT22;36966;48.064;-0.792;2023-08-17T04:19:51;25.20;57.10
50955;DHT22;36966;48.064;-0.792;2023-08-17T04:22:11;25.20;57.10
50955;DHT22;36966;48.064;-0.792;2023-08-17T04:24:31;25.20;57.10
50955;DHT22;36966;48.064;-0.792;2023-08-17T04:26:57;25.10;57.10
50955;DHT22;36966;48.064;-0.792;2023-08-17T04:29:17;25.10;57.10
50955;DHT22;36966;48.064;-0.792;2023-08-17T04:31:36;25.10;57.10
50955;DHT22;36966;48.064;-0.792;2023-08-17T04:33:55;25.10;57.10
50955;DHT22;36966;48.064;-0.792;2023-08-17T04:36:15;25.10;57.20
50955;DHT22;36966;48.064;-0.792;2023-08-17T04:38:34;25.10;57.20
50955;DHT22;36966;48.064;-0.792;2023-08-17T04:40:53;25.10;57.20
50955;DHT22;36966;48.064;-0.792;2023-08-17T04:43:12;25.10;57.20
50955;DHT22;36966;48.064;-0.792;2023-08-17T04:45:31;25.10;57.10
50955;DHT22;36966;48.064;-0.792;2023-08-17T04:47:51;25.10;57.10
50955;DHT22;36966;48.064;-0.792;2023-08-17T04:50:10;25.10;57.10
50955;DHT22;36966;48.064;-0.792;2023-08-17T04:52:37;25.00;57.10
50955;DHT22;36966;48.064;-0.792;2023-08-17T04:54:57;25.10;57.10
50955;DHT22;36966;48.064;-0.792;2023-08-17T04:57:16;25.00;57.10
50955;DHT22;36966;48.064;-0.792;2023-08-17T04:59:36;25.00;57.10
50955;DHT22;36966;48.064;-0.792;2023-08-17T05:01:56;25.00;57.10
50955;DHT22;36966;48.064;-0.792;2023-08-17T05:04:15;25.00;57.10
50955;DHT22;36966;48.064;-0.792;2023-08-17T05:06:34;25.00;57.10
50955;DHT22;36966;48.064;-0.792;2023-08-17T05:08:55;25.00;57.10
50955;DHT22;36966;48.064;-0.792;2023-08-17T05:11:14;25.00;57.10
50955;DHT22;36966;48.064;-0.792;2023-08-17T05:13:34;25.00;57.10
50955;DHT22;36966;48.064;-0.792;2023-08-17T05:15:53;25.00;57.10
50955;DHT22;36966;48.064;-0.792;2023-08-17T05:18:13;25.00;57.10
50955;DHT22;36966;48.064;-0.792;2023-08-17T05:20:32;25.00;57.10
50955;DHT22;36966;48.064;-0.792;2023-08-17T05:22:51;25.00;57.10
50955;DHT22;36966;48.064;-0.792;2023-08-17T05:25:14;25.00;57.10
50955;DHT22;36966;48.064;-0.792;2023-08-17T05:27:33;25.00;57.10
50955;DHT22;36966;48.064;-0.792;2023-08-17T05:29:53;25.00;57.10
50955;DHT22;36966;48.064;-0.792;2023-08-17T05:32:12;25.00;57.10
50955;DHT22;36966;48.064;-0.792;2023-08-17T05:34:31;25.00;57.10
50955;DHT22;36966;48.064;-0.792;2023-08-17T05:36:51;25.00;57.00
50955;DHT22;36966;48.064;-0.792;2023-08-17T05:39:10;25.00;57.10
50955;DHT22;36966;48.064;-0.792;2023-08-17T05:41:29;25.00;57.00
50955;DHT22;36966;48.064;-0.792;2023-08-17T05:43:49;25.00;56.90
50955;DHT22;36966;48.064;-0.792;2023-08-17T05:46:08;25.00;56.90
50955;DHT22;36966;48.064;-0.792;2023-08-17T05:48:30;25.00;56.90
50955;DHT22;36966;48.064;-0.792;2023-08-17T05:50:50;25.00;56.90
50955;DHT22;36966;48.064;-0.792;2023-08-17T05:53:09;25.00;56.90
50955;DHT22;36966;48.064;-0.792;2023-08-17T05:55:29;25.00;56.90
50955;DHT22;36966;48.064;-0.792;2023-08-17T05:57:48;25.00;56.90
50955;DHT22;36966;48.064;-0.792;2023-08-17T06:00:07;25.00;56.90
50955;DHT22;36966;48.064;-0.792;2023-08-17T06:02:29;25.00;56.90
50955;DHT22;36966;48.064;-0.792;2023-08-17T06:04:48;25.00;56.90
50955;DHT22;36966;48.064;-0.792;2023-08-17T06:07:08;25.00;56.90
50955;DHT22;36966;48.064;-0.792;2023-08-17T06:09:27;25.00;56.90
50955;DHT22;36966;48.064;-0.792;2023-08-17T06:11:46;25.00;56.90
50955;DHT22;36966;48.064;-0.792;2023-08-17T06:14:06;25.00;56.80
50955;DHT22;36966;48.064;-0.792;2023-08-17T06:16:25;25.00;56.80
50955;DHT22;36966;48.064;-0.792;2023-08-17T06:18:45;25.00;56.90
50955;DHT22;36966;48.064;-0.792;2023-08-17T06:21:05;25.00;56.80
50955;DHT22;36966;48.064;-0.792;2023-08-17T06:23:24;25.00;56.80
50955;DHT22;36966;48.064;-0.792;2023-08-17T06:25:44;25.00;56.90
50955;DHT22;36966;48.064;-0.792;2023-08-17T06:28:03;25.00;56.80
50955;DHT22;36966;48.064;-0.792;2023-08-17T06:30:23;25.00;56.90
50955;DHT22;36966;48.064;-0.792;2023-08-17T06:32:42;25.00;56.90
50955;DHT22;36966;48.064;-0.792;2023-08-17T06:35:02;25.00;56.90
50955;DHT22;36966;48.064;-0.792;2023-08-17T06:37:21;25.00;56.80
50955;DHT22;36966;48.064;-0.792;2023-08-17T06:39:40;25.00;56.90
50955;DHT22;36966;48.064;-0.792;2023-08-17T06:42:00;25.00;56.90
50955;DHT22;36966;48.064;-0.792;2023-08-17T06:44:19;25.00;56.90
50955;DHT22;36966;48.064;-0.792;2023-08-17T06:46:38;25.00;56.90
50955;DHT22;36966;48.064;-0.792;2023-08-17T06:48:57;25.00;56.90
50955;DHT22;36966;48.064;-0.792;2023-08-17T06:51:19;25.00;56.90
50955;DHT22;36966;48.064;-0.792;2023-08-17T06:53:38;25.00;56.90
50955;DHT22;36966;48.064;-0.792;2023-08-17T06:55:57;25.00;56.80
50955;DHT22;36966;48.064;-0.792;2023-08-17T06:58:17;25.00;56.80
50955;DHT22;36966;48.064;-0.792;2023-08-17T07:00:36;25.00;56.80
50955;DHT22;36966;48.064;-0.792;2023-08-17T07:02:58;25.00;56.80
50955;DHT22;36966;48.064;-0.792;2023-08-17T07:05:17;25.10;56.90
50955;DHT22;36966;48.064;-0.792;2023-08-17T07:07:39;25.00;57.10
50955;DHT22;36966;48.064;-0.792;2023-08-17T07:09:59;25.10;57.30
50955;DHT22;36966;48.064;-0.792;2023-08-17T07:12:18;25.10;57.30
50955;DHT22;36966;48.064;-0.792;2023-08-17T07:14:38;25.10;57.40
50955;DHT22;36966;48.064;-0.792;2023-08-17T07:16:57;25.20;57.50
50955;DHT22;36966;48.064;-0.792;2023-08-17T07:19:17;25.20;57.60
50955;DHT22;36966;48.064;-0.792;2023-08-17T07:21:37;25.20;57.70
50955;DHT22;36966;48.064;-0.792;2023-08-17T07:23:56;25.20;57.80
50955;DHT22;36966;48.064;-0.792;2023-08-17T07:26:16;25.20;57.80
50955;DHT22;36966;48.064;-0.792;2023-08-17T07:28:37;25.20;57.70
50955;DHT22;36966;48.064;-0.792;2023-08-17T07:30:57;25.30;57.70
50955;DHT22;36966;48.064;-0.792;2023-08-17T07:33:16;25.30;57.70
50955;DHT22;36966;48.064;-0.792;2023-08-17T07:35:35;25.30;57.70
50955;DHT22;36966;48.064;-0.792;2023-08-17T07:37:54;25.40;57.70
50955;DHT22;36966;48.064;-0.792;2023-08-17T07:40:13;25.40;57.60
50955;DHT22;36966;48.064;-0.792;2023-08-17T07:42:33;25.40;57.70
50955;DHT22;36966;48.064;-0.792;2023-08-17T07:44:52;25.50;58.00
50955;DHT22;36966;48.064;-0.792;2023-08-17T07:47:11;25.50;57.70
50955;DHT22;36966;48.064;-0.792;2023-08-17T07:49:31;25.60;57.80
50955;DHT22;36966;48.064;-0.792;2023-08-17T07:51:50;25.60;58.00
50955;DHT22;36966;48.064;-0.792;2023-08-17T07:54:09;25.70;57.70
50955;DHT22;36966;48.064;-0.792;2023-08-17T07:56:29;25.70;57.90
50955;DHT22;36966;48.064;-0.792;2023-08-17T07:58:49;25.80;57.80
50955;DHT22;36966;48.064;-0.792;2023-08-17T08:01:08;25.80;58.30
50955;DHT22;36966;48.064;-0.792;2023-08-17T08:03:27;25.80;57.80
50955;DHT22;36966;48.064;-0.792;2023-08-17T08:05:47;25.90;58.40
50955;DHT22;36966;48.064;-0.792;2023-08-17T08:08:06;26.00;57.80
50955;DHT22;36966;48.064;-0.792;2023-08-17T08:10:26;26.00;58.10
50955;DHT22;36966;48.064;-0.792;2023-08-17T08:12:48;26.00;58.00
50955;DHT22;36966;48.064;-0.792;2023-08-17T08:15:08;26.10;58.00
50955;DHT22;36966;48.064;-0.792;2023-08-17T08:17:27;26.10;58.00
50955;DHT22;36966;48.064;-0.792;2023-08-17T08:19:47;26.20;58.00
50955;DHT22;36966;48.064;-0.792;2023-08-17T08:22:06;26.20;57.80
50955;DHT22;36966;48.064;-0.792;2023-08-17T08:24:25;26.20;58.20
50955;DHT22;36966;48.064;-0.792;2023-08-17T08:26:50;26.30;58.10
50955;DHT22;36966;48.064;-0.792;2023-08-17T08:29:10;26.30;57.90
50955;DHT22;36966;48.064;-0.792;2023-08-17T08:31:32;26.30;57.90
50955;DHT22;36966;48.064;-0.792;2023-08-17T08:33:51;26.40;58.20
50955;DHT22;36966;48.064;-0.792;2023-08-17T08:36:12;26.50;57.90
50955;DHT22;36966;48.064;-0.792;2023-08-17T08:38:31;26.50;57.80
50955;DHT22;36966;48.064;-0.792;2023-08-17T08:40:51;26.60;57.70
50955;DHT22;36966;48.064;-0.792;2023-08-17T08:43:10;26.60;57.80
50955;DHT22;36966;48.064;-0.792;2023-08-17T08:45:30;26.60;57.80
50955;DHT22;36966;48.064;-0.792;2023-08-17T08:47:50;26.70;57.80
50955;DHT22;36966;48.064;-0.792;2023-08-17T08:50:10;26.70;57.80
50955;DHT22;36966;48.064;-0.792;2023-08-17T08:52:34;26.70;58.00
50955;DHT22;36966;48.064;-0.792;2023-08-17T08:54:54;26.70;58.00
50955;DHT22;36966;48.064;-0.792;2023-08-17T08:57:14;26.70;58.20
50955;DHT22;36966;48.064;-0.792;2023-08-17T08:59:34;26.80;58.20
50955;DHT22;36966;48.064;-0.792;2023-08-17T09:01:57;26.70;58.00
50955;DHT22;36966;48.064;-0.792;2023-08-17T09:04:17;26.80;58.20
50955;DHT22;36966;48.064;-0.792;2023-08-17T09:06:36;26.80;58.30
50955;DHT22;36966;48.064;-0.792;2023-08-17T09:08:57;26.80;58.20
50955;DHT22;36966;48.064;-0.792;2023-08-17T09:11:17;26.80;58.30
50955;DHT22;36966;48.064;-0.792;2023-08-17T09:13:36;26.80;58.20
50955;DHT22;36966;48.064;-0.792;2023-08-17T09:15:56;26.90;58.30
50955;DHT22;36966;48.064;-0.792;2023-08-17T09:18:18;26.90;58.30
50955;DHT22;36966;48.064;-0.792;2023-08-17T09:20:45;26.90;58.20
50955;DHT22;36966;48.064;-0.792;2023-08-17T09:23:09;27.00;58.30
50955;DHT22;36966;48.064;-0.792;2023-08-17T09:25:30;27.00;58.10
50955;DHT22;36966;48.064;-0.792;2023-08-17T09:27:50;27.00;58.40
50955;DHT22;36966;48.064;-0.792;2023-08-17T09:30:09;27.00;58.20
50955;DHT22;36966;48.064;-0.792;2023-08-17T09:32:30;27.00;58.30
50955;DHT22;36966;48.064;-0.792;2023-08-17T09:34:49;27.00;58.20
50955;DHT22;36966;48.064;-0.792;2023-08-17T09:37:08;27.10;58.20
50955;DHT22;36966;48.064;-0.792;2023-08-17T09:39:27;27.10;58.10
50955;DHT22;36966;48.064;-0.792;2023-08-17T09:41:47;27.10;58.00
50955;DHT22;36966;48.064;-0.792;2023-08-17T09:44:06;27.10;58.00
50955;DHT22;36966;48.064;-0.792;2023-08-17T09:46:25;27.20;58.10
50955;DHT22;36966;48.064;-0.792;2023-08-17T09:48:47;27.20;58.40
50955;DHT22;36966;48.064;-0.792;2023-08-17T09:51:06;27.20;58.40
50955;DHT22;36966;48.064;-0.792;2023-08-17T09:53:29;27.20;58.00
50955;DHT22;36966;48.064;-0.792;2023-08-17T09:55:48;27.20;58.10
50955;DHT22;36966;48.064;-0.792;2023-08-17T09:58:07;27.20;58.00
50955;DHT22;36966;48.064;-0.792;2023-08-17T10:00:27;27.20;58.20
50955;DHT22;36966;48.064;-0.792;2023-08-17T10:02:49;27.30;58.30
50955;DHT22;36966;48.064;-0.792;2023-08-17T10:05:08;27.30;57.90
50955;DHT22;36966;48.064;-0.792;2023-08-17T10:07:30;27.30;58.10
50955;DHT22;36966;48.064;-0.792;2023-08-17T10:09:56;27.30;58.20
50955;DHT22;36966;48.064;-0.792;2023-08-17T10:12:16;27.40;58.50
50955;DHT22;36966;48.064;-0.792;2023-08-17T10:14:36;27.40;58.60
50955;DHT22;36966;48.064;-0.792;2023-08-17T10:17:00;27.40;58.50
50955;DHT22;36966;48.064;-0.792;2023-08-17T10:19:33;27.50;58.40
50955;DHT22;36966;48.064;-0.792;2023-08-17T10:24:27;27.50;58.50
50955;DHT22;36966;48.064;-0.792;2023-08-17T10:26:47;27.60;58.40
50955;DHT22;36966;48.064;-0.792;2023-08-17T10:29:06;27.60;58.20
50955;DHT22;36966;48.064;-0.792;2023-08-17T10:31:26;27.70;58.30
50955;DHT22;36966;48.064;-0.792;2023-08-17T10:33:46;27.70;58.20
50955;DHT22;36966;48.064;-0.792;2023-08-17T10:36:06;27.70;58.50
50955;DHT22;36966;48.064;-0.792;2023-08-17T10:38:26;27.70;58.10
50955;DHT22;36966;48.064;-0.792;2023-08-17T10:40:45;27.80;58.20
50955;DHT22;36966;48.064;-0.792;2023-08-17T10:43:32;27.80;58.10
50955;DHT22;36966;48.064;-0.792;2023-08-17T10:45:51;27.80;58.00
50955;DHT22;36966;48.064;-0.792;2023-08-17T10:50:29;27.80;58.20
50955;DHT22;36966;48.064;-0.792;2023-08-17T10:52:49;27.80;58.40
50955;DHT22;36966;48.064;-0.792;2023-08-17T10:55:09;27.70;58.60
50955;DHT22;36966;48.064;-0.792;2023-08-17T10:57:40;27.70;58.80
50955;DHT22;36966;48.064;-0.792;2023-08-17T11:02:26;27.70;58.70
50955;DHT22;36966;48.064;-0.792;2023-08-17T11:04:50;27.70;58.60
50955;DHT22;36966;48.064;-0.792;2023-08-17T11:07:13;27.80;58.50
50955;DHT22;36966;48.064;-0.792;2023-08-17T11:09:34;27.70;58.30
50955;DHT22;36966;48.064;-0.792;2023-08-17T11:11:54;27.70;58.30
50955;DHT22;36966;48.064;-0.792;2023-08-17T11:14:13;27.80;58.30
50955;DHT22;36966;48.064;-0.792;2023-08-17T11:16:33;27.70;58.50
50955;DHT22;36966;48.064;-0.792;2023-08-17T11:18:55;27.80;58.40
50955;DHT22;36966;48.064;-0.792;2023-08-17T11:21:17;27.80;58.30
50955;DHT22;36966;48.064;-0.792;2023-08-17T11:23:37;27.80;58.40
50955;DHT22;36966;48.064;-0.792;2023-08-17T11:25:57;27.80;58.10
50955;DHT22;36966;48.064;-0.792;2023-08-17T11:28:16;27.80;58.10
50955;DHT22;36966;48.064;-0.792;2023-08-17T11:30:36;27.80;58.00
50955;DHT22;36966;48.064;-0.792;2023-08-17T11:32:58;27.80;58.00
50955;DHT22;36966;48.064;-0.792;2023-08-17T11:35:17;27.80;58.20
50955;DHT22;36966;48.064;-0.792;2023-08-17T11:37:36;27.80;58.30
50955;DHT22;36966;48.064;-0.792;2023-08-17T11:39:55;27.80;57.90
50955;DHT22;36966;48.064;-0.792;2023-08-17T11:42:15;27.80;57.80
50955;DHT22;36966;48.064;-0.792;2023-08-17T11:44:34;27.80;58.00
50955;DHT22;36966;48.064;-0.792;2023-08-17T11:46:53;27.90;58.00
50955;DHT22;36966;48.064;-0.792;2023-08-17T11:49:12;27.90;57.90
50955;DHT22;36966;48.064;-0.792;2023-08-17T11:51:31;27.90;57.80
50955;DHT22;36966;48.064;-0.792;2023-08-17T11:53:51;28.00;57.70
50955;DHT22;36966;48.064;-0.792;2023-08-17T11:56:10;28.00;57.50
50955;DHT22;36966;48.064;-0.792;2023-08-17T11:59:07;27.90;57.60
50955;DHT22;36966;48.064;-0.792;2023-08-17T12:01:15;28.00;57.50
50955;DHT22;36966;48.064;-0.792;2023-08-17T12:03:38;27.90;57.40
50955;DHT22;36966;48.064;-0.792;2023-08-17T12:05:57;27.90;57.40
50955;DHT22;36966;48.064;-0.792;2023-08-17T12:08:17;27.90;57.30
50955;DHT22;36966;48.064;-0.792;2023-08-17T12:10:36;27.80;57.30
50955;DHT22;36966;48.064;-0.792;2023-08-17T12:12:59;27.80;57.40
50955;DHT22;36966;48.064;-0.792;2023-08-17T12:15:19;27.80;57.70
50955;DHT22;36966;48.064;-0.792;2023-08-17T12:17:48;27.80;57.60
50955;DHT22;36966;48.064;-0.792;2023-08-17T12:20:08;27.80;57.60
50955;DHT22;36966;48.064;-0.792;2023-08-17T12:22:28;27.80;57.60
50955;DHT22;36966;48.064;-0.792;2023-08-17T12:24:47;27.70;57.70
50955;DHT22;36966;48.064;-0.792;2023-08-17T12:27:07;27.80;57.70
50955;DHT22;36966;48.064;-0.792;2023-08-17T12:29:26;27.70;57.80
50955;DHT22;36966;48.064;-0.792;2023-08-17T12:31:45;27.70;58.00
50955;DHT22;36966;48.064;-0.792;2023-08-17T12:34:05;27.70;58.00
50955;DHT22;36966;48.064;-0.792;2023-08-17T12:36:24;27.70;58.00
50955;DHT22;36966;48.064;-0.792;2023-08-17T12:38:44;27.70;58.20
50955;DHT22;36966;48.064;-0.792;2023-08-17T12:41:03;27.70;58.00
50955;DHT22;36966;48.064;-0.792;2023-08-17T12:43:23;27.70;57.90
50955;DHT22;36966;48.064;-0.792;2023-08-17T12:45:42;27.70;57.70
50955;DHT22;36966;48.064;-0.792;2023-08-17T12:48:01;27.70;57.70
50955;DHT22;36966;48.064;-0.792;2023-08-17T12:50:21;27.70;57.80
50955;DHT22;36966;48.064;-0.792;2023-08-17T12:52:40;27.70;57.80
50955;DHT22;36966;48.064;-0.792;2023-08-17T12:55:00;27.60;57.70
50955;DHT22;36966;48.064;-0.792;2023-08-17T12:57:19;27.60;57.80
50955;DHT22;36966;48.064;-0.792;2023-08-17T12:59:38;27.60;57.90
50955;DHT22;36966;48.064;-0.792;2023-08-17T13:01:58;27.70;57.80
50955;DHT22;36966;48.064;-0.792;2023-08-17T13:04:26;27.70;57.80
50955;DHT22;36966;48.064;-0.792;2023-08-17T13:06:46;27.70;57.90
50955;DHT22;36966;48.064;-0.792;2023-08-17T13:09:06;27.60;58.00
50955;DHT22;36966;48.064;-0.792;2023-08-17T13:11:26;27.50;57.90
50955;DHT22;36966;48.064;-0.792;2023-08-17T13:13:45;27.50;58.00
50955;DHT22;36966;48.064;-0.792;2023-08-17T13:16:04;27.50;58.20
50955;DHT22;36966;48.064;-0.792;2023-08-17T13:18:24;27.50;58.20
50955;DHT22;36966;48.064;-0.792;2023-08-17T13:20:43;27.50;58.20
50955;DHT22;36966;48.064;-0.792;2023-08-17T13:23:03;27.40;58.20
50955;DHT22;36966;48.064;-0.792;2023-08-17T13:25:22;27.50;58.50
50955;DHT22;36966;48.064;-0.792;2023-08-17T13:27:42;27.50;58.30
50955;DHT22;36966;48.064;-0.792;2023-08-17T13:30:01;27.50;58.50
50955;DHT22;36966;48.064;-0.792;2023-08-17T13:32:21;27.50;58.50
50955;DHT22;36966;48.064;-0.792;2023-08-17T13:34:40;27.50;58.20
50955;DHT22;36966;48.064;-0.792;2023-08-17T13:36:59;27.50;58.20
50955;DHT22;36966;48.064;-0.792;2023-08-17T13:39:22;27.50;58.00
50955;DHT22;36966;48.064;-0.792;2023-08-17T13:41:41;27.50;58.10
50955;DHT22;36966;48.064;-0.792;2023-08-17T13:44:01;27.60;57.90
50955;DHT22;36966;48.064;-0.792;2023-08-17T13:46:21;27.50;57.80
50955;DHT22;36966;48.064;-0.792;2023-08-17T13:48:40;27.60;57.90
50955;DHT22;36966;48.064;-0.792;2023-08-17T13:51:00;27.50;57.70
50955;DHT22;36966;48.064;-0.792;2023-08-17T13:53:20;27.50;57.80
50955;DHT22;36966;48.064;-0.792;2023-08-17T13:55:39;27.60;57.80
50955;DHT22;36966;48.064;-0.792;2023-08-17T13:57:59;27.50;57.90
50955;DHT22;36966;48.064;-0.792;2023-08-17T14:00:18;27.50;57.50
50955;DHT22;36966;48.064;-0.792;2023-08-17T14:02:37;27.50;57.50
50955;DHT22;36966;48.064;-0.792;2023-08-17T14:04:57;27.50;57.40
50955;DHT22;36966;48.064;-0.792;2023-08-17T14:07:16;27.40;57.60
50955;DHT22;36966;48.064;-0.792;2023-08-17T14:09:36;27.40;57.60
50955;DHT22;36966;48.064;-0.792;2023-08-17T14:11:55;27.50;57.50
50955;DHT22;36966;48.064;-0.792;2023-08-17T14:14:14;27.40;57.40
50955;DHT22;36966;48.064;-0.792;2023-08-17T14:16:33;27.40;57.40
50955;DHT22;36966;48.064;-0.792;2023-08-17T14:18:53;27.40;57.40
50955;DHT22;36966;48.064;-0.792;2023-08-17T14:21:13;27.40;57.50
50955;DHT22;36966;48.064;-0.792;2023-08-17T14:23:32;27.40;57.70
50955;DHT22;36966;48.064;-0.792;2023-08-17T14:25:51;27.30;57.50
50955;DHT22;36966;48.064;-0.792;2023-08-17T14:28:11;27.40;57.50
50955;DHT22;36966;48.064;-0.792;2023-08-17T14:30:30;27.40;57.50
50955;DHT22;36966;48.064;-0.792;2023-08-17T14:32:50;27.40;57.50
50955;DHT22;36966;48.064;-0.792;2023-08-17T14:35:09;27.40;57.40
50955;DHT22;36966;48.064;-0.792;2023-08-17T14:37:29;27.50;57.50
50955;DHT22;36966;48.064;-0.792;2023-08-17T14:39:48;27.50;57.60
50955;DHT22;36966;48.064;-0.792;2023-08-17T14:42:07;27.50;57.40
50955;DHT22;36966;48.064;-0.792;2023-08-17T14:44:29;27.40;57.40
50955;DHT22;36966;48.064;-0.792;2023-08-17T14:46:48;27.50;57.50
50955;DHT22;36966;48.064;-0.792;2023-08-17T14:49:07;27.50;57.60